sensor_id;sensor_type;location;lat;lon;timestamp;P1;durP1;ratioP1;P2;durP2;ratioP2
14143;SDS011;7152;48.348;10.980;2022-11-15T00:01:48;12.07;;;10.73;;
14143;SDS011;7152;48.348;10.980;2022-11-15T00:04:13;13.13;;;10.83;;
14143;SDS011;7152;48.348;10.980;2022-11-15T00:06:39;11.03;;;9.87;;
14143;SDS011;7152;48.348;10.980;2022-11-15T00:09:04;11.83;;;10.17;;
14143;SDS011;7152;48.348;10.980;2022-11-15T00:11:30;12.73;;;10.20;;
14143;SDS011;7152;48.348;10.980;2022-11-15T00:13:56;14.00;;;10.47;;
14143;SDS011;7152;48.348;10.980;2022-11-15T00:16:23;11.40;;;10.30;;
14143;SDS011;7152;48.348;10.980;2022-11-15T00:18:49;9.97;;;8.97;;
14143;SDS011;7152;48.348;10.980;2022-11-15T00:21:15;11.00;;;9.10;;
14143;SDS011;7152;48.348;10.980;2022-11-15T00:23:43;10.90;;;9.90;;
14143;SDS011;7152;48.348;10.980;2022-11-15T00:26:12;10.40;;;9.30;;
14143;SDS011;7152;48.348;10.980;2022-11-15T00:28:39;10.77;;;9.13;;
14143;SDS011;7152;48.348;10.980;2022-11-15T00:31:06;11.57;;;9.80;;
14143;SDS011;7152;48.348;10.980;2022-11-15T00:33:39;12.57;;;10.27;;
14143;SDS011;7152;48.348;10.980;2022-11-15T00:36:06;10.80;;;9.77;;
14143;SDS011;7152;48.348;10.980;2022-11-15T00:38:34;11.43;;;10.07;;
14143;SDS011;7152;48.348;10.980;2022-11-15T00:41:01;11.13;;;9.70;;
14143;SDS011;7152;48.348;10.980;2022-11-15T00:43:27;10.93;;;9.73;;
14143;SDS011;7152;48.348;10.980;2022-11-15T00:45:53;12.00;;;10.13;;
14143;SDS011;7152;48.348;10.980;2022-11-15T00:48:19;11.20;;;10.00;;
14143;SDS011;7152;48.348;10.980;2022-11-15T00:50:44;11.73;;;10.50;;
14143;SDS011;7152;48.348;10.980;2022-11-15T00:53:10;11.60;;;10.40;;
14143;SDS011;7152;48.348;10.980;2022-11-15T00:55:36;11.83;;;10.23;;
14143;SDS011;7152;48.348;10.980;2022-11-15T00:58:02;11.90;;;10.07;;
14143;SDS011;7152;48.348;10.980;2022-11-15T01:00:27;11.87;;;9.90;;
14143;SDS011;7152;48.348;10.980;2022-11-15T01:02:53;12.27;;;9.87;;
14143;SDS011;7152;48.348;10.980;2022-11-15T01:05:19;10.90;;;9.50;;
14143;SDS011;7152;48.348;10.980;2022-11-15T01:07:45;10.53;;;9.37;;
14143;SDS011;7152;48.348;10.980;2022-11-15T01:10:11;10.63;;;9.53;;
14143;SDS011;7152;48.348;10.980;2022-11-15T01:12:36;10.33;;;8.90;;
14143;SDS011;7152;48.348;10.980;2022-11-15T01:15:03;10.67;;;9.47;;
14143;SDS011;7152;48.348;10.980;2022-11-15T01:17:29;10.10;;;9.10;;
14143;SDS011;7152;48.348;10.980;2022-11-15T01:19:55;11.90;;;10.50;;
14143;SDS011;7152;48.348;10.980;2022-11-15T01:22:21;11.33;;;10.13;;
14143;SDS011;7152;48.348;10.980;2022-11-15T01:24:47;10.53;;;9.33;;
14143;SDS011;7152;48.348;10.980;2022-11-15T01:27:14;11.27;;;8.83;;
14143;SDS011;7152;48.348;10.980;2022-11-15T01:29:40;10.10;;;9.10;;
14143;SDS011;7152;48.348;10.980;2022-11-15T01:32:06;11.00;;;9.50;;
14143;SDS011;7152;48.348;10.980;2022-11-15T01:34:31;11.90;;;10.70;;
14143;SDS011;7152;48.348;10.980;2022-11-15T01:36:57;11.70;;;9.97;;
14143;SDS011;7152;48.348;10.980;2022-11-15T01:39:22;12.30;;;10.63;;
14143;SDS011;7152;48.348;10.980;2022-11-15T01:41:48;11.27;;;10.17;;
14143;SDS011;7152;48.348;10.980;2022-11-15T01:47:02;11.30;;;9.27;;
14143;SDS011;7152;48.348;10.980;2022-11-15T01:49:32;12.50;;;9.67;;
14143;SDS011;7152;48.348;10.980;2022-11-15T01:52:02;12.63;;;10.20;;
14143;SDS011;7152;48.348;10.980;2022-11-15T01:54:30;12.00;;;9.67;;
14143;SDS011;7152;48.348;10.980;2022-11-15T01:57:00;10.77;;;9.10;;
14143;SDS011;7152;48.348;10.980;2022-11-15T01:59:28;11.53;;;9.10;;
14143;SDS011;7152;48.348;10.980;2022-11-15T02:01:54;11.07;;;9.50;;
14143;SDS011;7152;48.348;10.980;2022-11-15T02:04:34;9.63;;;8.63;;
14143;SDS011;7152;48.348;10.980;2022-11-15T02:07:04;9.93;;;8.23;;
14143;SDS011;7152;48.348;10.980;2022-11-15T02:09:31;11.43;;;8.73;;
14143;SDS011;7152;48.348;10.980;2022-11-15T02:11:57;9.70;;;8.70;;
14143;SDS011;7152;48.348;10.980;2022-11-15T02:14:25;10.00;;;8.83;;
14143;SDS011;7152;48.348;10.980;2022-11-15T02:28:10;11.20;;;9.57;;
14143;SDS011;7152;48.348;10.980;2022-11-15T02:39:50;9.37;;;8.47;;
14143;SDS011;7152;48.348;10.980;2022-11-15T02:42:28;9.20;;;8.20;;
14143;SDS011;7152;48.348;10.980;2022-11-15T02:45:27;9.93;;;8.90;;
14143;SDS011;7152;48.348;10.980;2022-11-15T02:47:56;10.20;;;8.40;;
14143;SDS011;7152;48.348;10.980;2022-11-15T02:50:28;10.00;;;9.03;;
14143;SDS011;7152;48.348;10.980;2022-11-15T02:52:56;11.30;;;9.73;;
14143;SDS011;7152;48.348;10.980;2022-11-15T02:55:29;12.07;;;10.30;;
14143;SDS011;7152;48.348;10.980;2022-11-15T03:00:21;11.60;;;9.77;;
14143;SDS011;7152;48.348;10.980;2022-11-15T03:05:38;10.50;;;9.40;;
14143;SDS011;7152;48.348;10.980;2022-11-15T03:11:03;10.73;;;9.63;;
14143;SDS011;7152;48.348;10.980;2022-11-15T03:14:03;10.80;;;9.70;;
14143;SDS011;7152;48.348;10.980;2022-11-15T03:19:52;10.80;;;9.70;;
14143;SDS011;7152;48.348;10.980;2022-11-15T03:22:03;10.00;;;9.00;;
14143;SDS011;7152;48.348;10.980;2022-11-15T03:24:31;9.50;;;8.33;;
14143;SDS011;7152;48.348;10.980;2022-11-15T03:27:01;8.70;;;7.80;;
14143;SDS011;7152;48.348;10.980;2022-11-15T03:29:31;8.13;;;7.33;;
14143;SDS011;7152;48.348;10.980;2022-11-15T03:32:01;9.23;;;8.33;;
14143;SDS011;7152;48.348;10.980;2022-11-15T03:37:20;8.90;;;7.57;;
14143;SDS011;7152;48.348;10.980;2022-11-15T03:39:49;7.77;;;7.00;;
14143;SDS011;7152;48.348;10.980;2022-11-15T03:45:17;9.40;;;7.17;;
14143;SDS011;7152;48.348;10.980;2022-11-15T03:50:22;9.57;;;6.90;;
14143;SDS011;7152;48.348;10.980;2022-11-15T03:52:49;7.80;;;6.97;;
14143;SDS011;7152;48.348;10.980;2022-11-15T03:55:17;7.57;;;6.87;;
14143;SDS011;7152;48.348;10.980;2022-11-15T03:57:44;7.63;;;6.93;;
14143;SDS011;7152;48.348;10.980;2022-11-15T04:00:11;9.43;;;7.70;;
14143;SDS011;7152;48.348;10.980;2022-11-15T04:02:36;8.77;;;7.97;;
14143;SDS011;7152;48.348;10.980;2022-11-15T04:05:03;11.17;;;8.57;;
14143;SDS011;7152;48.348;10.980;2022-11-15T04:07:29;11.23;;;9.33;;
14143;SDS011;7152;48.348;10.980;2022-11-15T04:09:54;10.77;;;9.07;;
14143;SDS011;7152;48.348;10.980;2022-11-15T04:12:33;11.57;;;9.30;;
14143;SDS011;7152;48.348;10.980;2022-11-15T04:15:05;12.67;;;10.43;;
14143;SDS011;7152;48.348;10.980;2022-11-15T04:17:36;14.07;;;10.60;;
14143;SDS011;7152;48.348;10.980;2022-11-15T04:20:17;11.83;;;10.27;;
14143;SDS011;7152;48.348;10.980;2022-11-15T04:23:04;13.80;;;10.60;;
14143;SDS011;7152;48.348;10.980;2022-11-15T04:25:54;14.70;;;9.97;;
14143;SDS011;7152;48.348;10.980;2022-11-15T04:28:20;11.83;;;9.40;;
14143;SDS011;7152;48.348;10.980;2022-11-15T04:30:47;11.33;;;9.93;;
14143;SDS011;7152;48.348;10.980;2022-11-15T04:33:12;12.27;;;9.30;;
14143;SDS011;7152;48.348;10.980;2022-11-15T04:35:38;9.93;;;8.50;;
14143;SDS011;7152;48.348;10.980;2022-11-15T04:38:05;10.30;;;9.10;;
14143;SDS011;7152;48.348;10.980;2022-11-15T04:40:32;11.93;;;9.77;;
14143;SDS011;7152;48.348;10.980;2022-11-15T04:42:57;10.10;;;8.83;;
14143;SDS011;7152;48.348;10.980;2022-11-15T04:45:23;9.87;;;8.83;;
14143;SDS011;7152;48.348;10.980;2022-11-15T04:47:48;8.67;;;7.60;;
14143;SDS011;7152;48.348;10.980;2022-11-15T04:50:14;9.43;;;7.90;;
14143;SDS011;7152;48.348;10.980;2022-11-15T04:52:50;10.00;;;8.57;;
14143;SDS011;7152;48.348;10.980;2022-11-15T04:55:17;9.10;;;7.90;;
14143;SDS011;7152;48.348;10.980;2022-11-15T04:57:43;10.67;;;8.93;;
14143;SDS011;7152;48.348;10.980;2022-11-15T05:00:10;10.30;;;8.77;;
14143;SDS011;7152;48.348;10.980;2022-11-15T05:02:37;12.23;;;9.63;;
14143;SDS011;7152;48.348;10.980;2022-11-15T05:05:21;10.97;;;8.77;;
14143;SDS011;7152;48.348;10.980;2022-11-15T05:07:48;9.87;;;8.87;;
14143;SDS011;7152;48.348;10.980;2022-11-15T05:10:13;9.60;;;8.60;;
14143;SDS011;7152;48.348;10.980;2022-11-15T05:12:39;9.37;;;8.47;;
14143;SDS011;7152;48.348;10.980;2022-11-15T05:15:05;9.30;;;8.33;;
14143;SDS011;7152;48.348;10.980;2022-11-15T05:17:31;10.43;;;9.33;;
14143;SDS011;7152;48.348;10.980;2022-11-15T05:19:57;10.10;;;9.07;;
14143;SDS011;7152;48.348;10.980;2022-11-15T05:22:22;10.93;;;9.83;;
14143;SDS011;7152;48.348;10.980;2022-11-15T05:24:48;10.17;;;9.17;;
14143;SDS011;7152;48.348;10.980;2022-11-15T05:27:13;9.67;;;8.43;;
14143;SDS011;7152;48.348;10.980;2022-11-15T05:29:39;11.17;;;8.30;;
14143;SDS011;7152;48.348;10.980;2022-11-15T05:32:05;10.57;;;8.50;;
14143;SDS011;7152;48.348;10.980;2022-11-15T05:34:33;8.83;;;7.93;;
14143;SDS011;7152;48.348;10.980;2022-11-15T05:36:59;9.23;;;8.23;;
14143;SDS011;7152;48.348;10.980;2022-11-15T05:39:24;9.73;;;8.50;;
14143;SDS011;7152;48.348;10.980;2022-11-15T05:41:59;8.77;;;7.87;;
14143;SDS011;7152;48.348;10.980;2022-11-15T05:44:44;8.50;;;7.43;;
14143;SDS011;7152;48.348;10.980;2022-11-15T05:47:15;9.03;;;7.93;;
14143;SDS011;7152;48.348;10.980;2022-11-15T05:49:44;8.40;;;7.17;;
14143;SDS011;7152;48.348;10.980;2022-11-15T05:52:13;9.00;;;8.10;;
14143;SDS011;7152;48.348;10.980;2022-11-15T05:54:41;9.47;;;8.20;;
14143;SDS011;7152;48.348;10.980;2022-11-15T05:57:08;8.73;;;7.83;;
14143;SDS011;7152;48.348;10.980;2022-11-15T05:59:33;10.30;;;7.47;;
14143;SDS011;7152;48.348;10.980;2022-11-15T06:02:00;8.70;;;7.43;;
14143;SDS011;7152;48.348;10.980;2022-11-15T06:04:25;8.40;;;7.10;;
14143;SDS011;7152;48.348;10.980;2022-11-15T06:06:51;8.40;;;7.60;;
14143;SDS011;7152;48.348;10.980;2022-11-15T06:09:17;8.77;;;7.10;;
14143;SDS011;7152;48.348;10.980;2022-11-15T06:11:42;9.43;;;7.87;;
14143;SDS011;7152;48.348;10.980;2022-11-15T06:14:08;8.93;;;8.13;;
14143;SDS011;7152;48.348;10.980;2022-11-15T06:16:33;7.73;;;7.03;;
14143;SDS011;7152;48.348;10.980;2022-11-15T06:18:59;9.20;;;6.97;;
14143;SDS011;7152;48.348;10.980;2022-11-15T06:21:25;7.93;;;7.07;;
14143;SDS011;7152;48.348;10.980;2022-11-15T06:23:53;8.33;;;7.53;;
14143;SDS011;7152;48.348;10.980;2022-11-15T06:26:18;7.77;;;6.97;;
14143;SDS011;7152;48.348;10.980;2022-11-15T06:28:44;13.53;;;9.17;;
14143;SDS011;7152;48.348;10.980;2022-11-15T06:31:10;8.93;;;8.03;;
14143;SDS011;7152;48.348;10.980;2022-11-15T06:33:37;7.47;;;6.73;;
14143;SDS011;7152;48.348;10.980;2022-11-15T06:36:04;9.90;;;8.90;;
14143;SDS011;7152;48.348;10.980;2022-11-15T06:38:31;11.20;;;8.50;;
14143;SDS011;7152;48.348;10.980;2022-11-15T06:41:04;9.50;;;8.50;;
14143;SDS011;7152;48.348;10.980;2022-11-15T06:43:32;10.63;;;7.33;;
14143;SDS011;7152;48.348;10.980;2022-11-15T06:45:58;8.33;;;7.53;;
14143;SDS011;7152;48.348;10.980;2022-11-15T06:48:25;8.53;;;7.73;;
14143;SDS011;7152;48.348;10.980;2022-11-15T06:50:55;9.37;;;8.23;;
14143;SDS011;7152;48.348;10.980;2022-11-15T06:53:23;9.90;;;8.90;;
14143;SDS011;7152;48.348;10.980;2022-11-15T06:55:49;9.07;;;7.83;;
14143;SDS011;7152;48.348;10.980;2022-11-15T06:58:15;11.03;;;8.83;;
14143;SDS011;7152;48.348;10.980;2022-11-15T07:00:41;9.57;;;8.37;;
14143;SDS011;7152;48.348;10.980;2022-11-15T07:03:07;9.40;;;8.40;;
14143;SDS011;7152;48.348;10.980;2022-11-15T07:05:34;9.40;;;8.30;;
14143;SDS011;7152;48.348;10.980;2022-11-15T07:08:00;14.37;;;10.73;;
14143;SDS011;7152;48.348;10.980;2022-11-15T07:10:26;14.10;;;12.07;;
14143;SDS011;7152;48.348;10.980;2022-11-15T07:12:52;13.47;;;12.07;;
14143;SDS011;7152;48.348;10.980;2022-11-15T07:15:20;13.50;;;11.90;;
14143;SDS011;7152;48.348;10.980;2022-11-15T07:17:47;15.03;;;11.83;;
14143;SDS011;7152;48.348;10.980;2022-11-15T07:20:13;17.87;;;13.50;;
14143;SDS011;7152;48.348;10.980;2022-11-15T07:22:39;9.57;;;8.43;;
14143;SDS011;7152;48.348;10.980;2022-11-15T07:25:05;8.70;;;7.80;;
14143;SDS011;7152;48.348;10.980;2022-11-15T07:27:31;9.70;;;8.70;;
14143;SDS011;7152;48.348;10.980;2022-11-15T07:29:57;10.77;;;9.73;;
14143;SDS011;7152;48.348;10.980;2022-11-15T07:32:22;10.57;;;8.97;;
14143;SDS011;7152;48.348;10.980;2022-11-15T07:34:48;13.00;;;10.83;;
14143;SDS011;7152;48.348;10.980;2022-11-15T07:37:14;11.27;;;9.73;;
14143;SDS011;7152;48.348;10.980;2022-11-15T07:39:39;13.20;;;9.33;;
14143;SDS011;7152;48.348;10.980;2022-11-15T07:42:05;13.40;;;10.00;;
14143;SDS011;7152;48.348;10.980;2022-11-15T07:44:49;12.93;;;10.53;;
14143;SDS011;7152;48.348;10.980;2022-11-15T07:47:15;12.27;;;11.00;;
14143;SDS011;7152;48.348;10.980;2022-11-15T07:49:40;13.30;;;11.30;;
14143;SDS011;7152;48.348;10.980;2022-11-15T07:52:06;13.30;;;11.90;;
14143;SDS011;7152;48.348;10.980;2022-11-15T07:54:32;13.67;;;12.20;;
14143;SDS011;7152;48.348;10.980;2022-11-15T07:56:57;13.13;;;11.57;;
14143;SDS011;7152;48.348;10.980;2022-11-15T07:59:23;17.03;;;12.77;;
14143;SDS011;7152;48.348;10.980;2022-11-15T08:01:48;11.67;;;10.47;;
14143;SDS011;7152;48.348;10.980;2022-11-15T08:04:14;12.33;;;10.60;;
14143;SDS011;7152;48.348;10.980;2022-11-15T08:06:40;11.03;;;9.93;;
14143;SDS011;7152;48.348;10.980;2022-11-15T08:09:05;13.17;;;10.40;;
14143;SDS011;7152;48.348;10.980;2022-11-15T08:11:31;14.13;;;11.70;;
14143;SDS011;7152;48.348;10.980;2022-11-15T08:13:57;11.80;;;10.60;;
14143;SDS011;7152;48.348;10.980;2022-11-15T08:16:23;12.20;;;10.20;;
14143;SDS011;7152;48.348;10.980;2022-11-15T08:18:49;14.17;;;11.10;;
14143;SDS011;7152;48.348;10.980;2022-11-15T08:21:16;11.97;;;10.57;;
14143;SDS011;7152;48.348;10.980;2022-11-15T08:23:43;12.70;;;10.60;;
14143;SDS011;7152;48.348;10.980;2022-11-15T08:26:09;11.10;;;10.00;;
14143;SDS011;7152;48.348;10.980;2022-11-15T08:28:35;11.00;;;8.83;;
14143;SDS011;7152;48.348;10.980;2022-11-15T08:31:00;9.10;;;8.20;;
14143;SDS011;7152;48.348;10.980;2022-11-15T08:33:27;9.07;;;7.83;;
14143;SDS011;7152;48.348;10.980;2022-11-15T08:35:56;11.17;;;8.47;;
14143;SDS011;7152;48.348;10.980;2022-11-15T08:38:22;8.63;;;7.73;;
14143;SDS011;7152;48.348;10.980;2022-11-15T08:40:48;7.90;;;6.67;;
14143;SDS011;7152;48.348;10.980;2022-11-15T08:43:16;7.83;;;7.03;;
14143;SDS011;7152;48.348;10.980;2022-11-15T08:45:41;7.60;;;6.90;;
14143;SDS011;7152;48.348;10.980;2022-11-15T08:48:07;6.80;;;6.10;;
14143;SDS011;7152;48.348;10.980;2022-11-15T08:50:32;7.47;;;6.77;;
14143;SDS011;7152;48.348;10.980;2022-11-15T08:53:03;6.63;;;6.03;;
14143;SDS011;7152;48.348;10.980;2022-11-15T08:55:37;6.70;;;5.97;;
14143;SDS011;7152;48.348;10.980;2022-11-15T08:58:04;6.53;;;5.90;;
14143;SDS011;7152;48.348;10.980;2022-11-15T09:00:30;6.70;;;6.03;;
14143;SDS011;7152;48.348;10.980;2022-11-15T09:02:55;5.97;;;5.37;;
14143;SDS011;7152;48.348;10.980;2022-11-15T09:05:21;5.80;;;5.20;;
14143;SDS011;7152;48.348;10.980;2022-11-15T09:07:46;7.10;;;6.30;;
14143;SDS011;7152;48.348;10.980;2022-11-15T09:10:12;5.93;;;5.43;;
14143;SDS011;7152;48.348;10.980;2022-11-15T09:12:38;6.23;;;5.63;;
14143;SDS011;7152;48.348;10.980;2022-11-15T09:15:04;7.07;;;5.43;;
14143;SDS011;7152;48.348;10.980;2022-11-15T09:17:31;6.63;;;5.90;;
14143;SDS011;7152;48.348;10.980;2022-11-15T09:19:56;6.20;;;5.60;;
14143;SDS011;7152;48.348;10.980;2022-11-15T09:22:22;5.87;;;5.27;;
14143;SDS011;7152;48.348;10.980;2022-11-15T09:24:48;6.27;;;4.87;;
14143;SDS011;7152;48.348;10.980;2022-11-15T09:27:13;5.17;;;4.67;;
14143;SDS011;7152;48.348;10.980;2022-11-15T09:29:39;6.07;;;5.47;;
14143;SDS011;7152;48.348;10.980;2022-11-15T09:32:05;5.60;;;5.10;;
14143;SDS011;7152;48.348;10.980;2022-11-15T09:34:30;8.70;;;5.30;;
14143;SDS011;7152;48.348;10.980;2022-11-15T09:36:56;6.03;;;5.37;;
14143;SDS011;7152;48.348;10.980;2022-11-15T09:39:22;6.10;;;5.47;;
14143;SDS011;7152;48.348;10.980;2022-11-15T09:49:51;5.63;;;5.13;;
14143;SDS011;7152;48.348;10.980;2022-11-15T09:52:22;6.13;;;5.53;;
14143;SDS011;7152;48.348;10.980;2022-11-15T09:54:49;7.03;;;6.33;;
14143;SDS011;7152;48.348;10.980;2022-11-15T09:57:21;11.37;;;7.60;;
14143;SDS011;7152;48.348;10.980;2022-11-15T09:59:59;7.60;;;6.40;;
14143;SDS011;7152;48.348;10.980;2022-11-15T10:05:37;38.17;;;34.93;;
14143;SDS011;7152;48.348;10.980;2022-11-15T10:08:25;22.67;;;20.97;;
14143;SDS011;7152;48.348;10.980;2022-11-15T10:11:11;7.13;;;6.53;;
14143;SDS011;7152;48.348;10.980;2022-11-15T10:13:41;5.80;;;5.30;;
14143;SDS011;7152;48.348;10.980;2022-11-15T10:24:25;5.07;;;4.57;;
14143;SDS011;7152;48.348;10.980;2022-11-15T10:26:54;4.30;;;3.90;;
14143;SDS011;7152;48.348;10.980;2022-11-15T10:29:21;4.90;;;4.40;;
14143;SDS011;7152;48.348;10.980;2022-11-15T10:31:47;6.00;;;5.40;;
14143;SDS011;7152;48.348;10.980;2022-11-15T10:34:15;6.07;;;5.40;;
14143;SDS011;7152;48.348;10.980;2022-11-15T10:36:45;6.50;;;5.83;;
14143;SDS011;7152;48.348;10.980;2022-11-15T10:39:18;6.63;;;5.83;;
14143;SDS011;7152;48.348;10.980;2022-11-15T10:41:44;4.23;;;3.93;;
14143;SDS011;7152;48.348;10.980;2022-11-15T10:44:11;4.17;;;3.77;;
14143;SDS011;7152;48.348;10.980;2022-11-15T10:46:47;4.33;;;3.93;;
14143;SDS011;7152;48.348;10.980;2022-11-15T10:49:31;4.70;;;4.30;;
14143;SDS011;7152;48.348;10.980;2022-11-15T10:51:58;3.90;;;3.57;;
14143;SDS011;7152;48.348;10.980;2022-11-15T10:54:45;4.87;;;4.30;;
14143;SDS011;7152;48.348;10.980;2022-11-15T10:57:19;4.60;;;3.73;;
14143;SDS011;7152;48.348;10.980;2022-11-15T11:02:37;5.20;;;3.43;;
14143;SDS011;7152;48.348;10.980;2022-11-15T11:05:06;4.47;;;3.57;;
14143;SDS011;7152;48.348;10.980;2022-11-15T11:10:36;3.60;;;3.30;;
14143;SDS011;7152;48.348;10.980;2022-11-15T11:13:15;3.87;;;3.33;;
14143;SDS011;7152;48.348;10.980;2022-11-15T11:15:48;3.63;;;3.03;;
14143;SDS011;7152;48.348;10.980;2022-11-15T11:18:25;3.90;;;3.60;;
14143;SDS011;7152;48.348;10.980;2022-11-15T11:20:58;4.03;;;3.50;;
14143;SDS011;7152;48.348;10.980;2022-11-15T11:31:33;4.50;;;4.10;;
14143;SDS011;7152;48.348;10.980;2022-11-15T11:34:34;4.03;;;3.73;;
14143;SDS011;7152;48.348;10.980;2022-11-15T11:40:29;4.40;;;3.73;;
14143;SDS011;7152;48.348;10.980;2022-11-15T11:45:39;4.90;;;4.17;;
14143;SDS011;7152;48.348;10.980;2022-11-15T11:48:19;4.10;;;3.70;;
14143;SDS011;7152;48.348;10.980;2022-11-15T11:50:45;5.10;;;4.60;;
14143;SDS011;7152;48.348;10.980;2022-11-15T11:56:22;4.40;;;4.00;;
14143;SDS011;7152;48.348;10.980;2022-11-15T11:58:52;4.83;;;3.87;;
14143;SDS011;7152;48.348;10.980;2022-11-15T12:02:02;4.80;;;3.97;;
14143;SDS011;7152;48.348;10.980;2022-11-15T12:04:18;4.20;;;3.90;;
14143;SDS011;7152;48.348;10.980;2022-11-15T12:06:54;3.70;;;3.30;;
14143;SDS011;7152;48.348;10.980;2022-11-15T12:09:32;3.87;;;3.53;;
14143;SDS011;7152;48.348;10.980;2022-11-15T12:12:15;4.37;;;3.47;;
14143;SDS011;7152;48.348;10.980;2022-11-15T12:15:18;4.23;;;3.83;;
14143;SDS011;7152;48.348;10.980;2022-11-15T12:17:54;4.87;;;3.93;;
14143;SDS011;7152;48.348;10.980;2022-11-15T12:20:22;4.53;;;4.10;;
14143;SDS011;7152;48.348;10.980;2022-11-15T12:25:45;3.77;;;3.47;;
14143;SDS011;7152;48.348;10.980;2022-11-15T12:28:18;4.10;;;3.70;;
14143;SDS011;7152;48.348;10.980;2022-11-15T12:33:41;3.60;;;3.30;;
14143;SDS011;7152;48.348;10.980;2022-11-15T12:38:53;3.80;;;3.50;;
14143;SDS011;7152;48.348;10.980;2022-11-15T12:41:21;3.83;;;3.00;;
14143;SDS011;7152;48.348;10.980;2022-11-15T12:43:49;3.83;;;3.47;;
14143;SDS011;7152;48.348;10.980;2022-11-15T12:46:19;4.00;;;3.60;;
14143;SDS011;7152;48.348;10.980;2022-11-15T12:48:48;4.30;;;3.90;;
14143;SDS011;7152;48.348;10.980;2022-11-15T12:51:17;4.17;;;3.70;;
14143;SDS011;7152;48.348;10.980;2022-11-15T12:53:45;4.27;;;3.70;;
14143;SDS011;7152;48.348;10.980;2022-11-15T13:14:52;3.27;;;2.97;;
14143;SDS011;7152;48.348;10.980;2022-11-15T13:19:48;3.23;;;2.80;;
14143;SDS011;7152;48.348;10.980;2022-11-15T13:22:38;4.67;;;3.20;;
14143;SDS011;7152;48.348;10.980;2022-11-15T13:28:01;3.40;;;3.10;;
14143;SDS011;7152;48.348;10.980;2022-11-15T13:36:05;4.77;;;3.43;;
14143;SDS011;7152;48.348;10.980;2022-11-15T13:38:39;5.00;;;3.50;;
14143;SDS011;7152;48.348;10.980;2022-11-15T13:41:18;3.60;;;3.30;;
14143;SDS011;7152;48.348;10.980;2022-11-15T13:43:46;3.67;;;3.27;;
14143;SDS011;7152;48.348;10.980;2022-11-15T13:48:42;3.80;;;3.50;;
14143;SDS011;7152;48.348;10.980;2022-11-15T13:51:13;3.87;;;3.53;;
14143;SDS011;7152;48.348;10.980;2022-11-15T13:53:45;4.00;;;3.60;;
14143;SDS011;7152;48.348;10.980;2022-11-15T13:56:15;4.17;;;3.50;;
14143;SDS011;7152;48.348;10.980;2022-11-15T13:58:42;4.50;;;3.60;;
14143;SDS011;7152;48.348;10.980;2022-11-15T14:01:08;3.90;;;3.37;;
14143;SDS011;7152;48.348;10.980;2022-11-15T14:04:14;4.93;;;4.20;;
14143;SDS011;7152;48.348;10.980;2022-11-15T14:06:42;4.27;;;3.90;;
14143;SDS011;7152;48.348;10.980;2022-11-15T14:11:37;5.40;;;3.97;;
14143;SDS011;7152;48.348;10.980;2022-11-15T14:14:14;5.13;;;4.60;;
14143;SDS011;7152;48.348;10.980;2022-11-15T14:19:11;4.57;;;4.17;;
14143;SDS011;7152;48.348;10.980;2022-11-15T14:22:07;5.63;;;4.87;;
14143;SDS011;7152;48.348;10.980;2022-11-15T14:24:41;4.47;;;4.07;;
14143;SDS011;7152;48.348;10.980;2022-11-15T14:27:16;4.33;;;4.00;;
14143;SDS011;7152;48.348;10.980;2022-11-15T14:29:42;4.70;;;4.30;;
14143;SDS011;7152;48.348;10.980;2022-11-15T14:32:15;5.67;;;4.10;;
14143;SDS011;7152;48.348;10.980;2022-11-15T14:34:43;3.80;;;3.50;;
14143;SDS011;7152;48.348;10.980;2022-11-15T14:37:16;6.00;;;5.17;;
14143;SDS011;7152;48.348;10.980;2022-11-15T14:39:51;6.70;;;5.20;;
14143;SDS011;7152;48.348;10.980;2022-11-15T14:42:17;6.73;;;4.90;;
14143;SDS011;7152;48.348;10.980;2022-11-15T14:44:43;4.47;;;4.07;;
14143;SDS011;7152;48.348;10.980;2022-11-15T14:47:09;5.83;;;5.23;;
14143;SDS011;7152;48.348;10.980;2022-11-15T14:49:34;6.13;;;5.53;;
14143;SDS011;7152;48.348;10.980;2022-11-15T14:52:00;5.60;;;4.97;;
14143;SDS011;7152;48.348;10.980;2022-11-15T14:54:26;6.43;;;4.80;;
14143;SDS011;7152;48.348;10.980;2022-11-15T14:56:51;7.30;;;4.80;;
14143;SDS011;7152;48.348;10.980;2022-11-15T14:59:17;6.47;;;5.03;;
14143;SDS011;7152;48.348;10.980;2022-11-15T15:01:43;6.27;;;5.27;;
14143;SDS011;7152;48.348;10.980;2022-11-15T15:04:09;10.00;;;7.20;;
14143;SDS011;7152;48.348;10.980;2022-11-15T15:06:36;8.17;;;7.30;;
14143;SDS011;7152;48.348;10.980;2022-11-15T15:09:02;10.07;;;8.03;;
14143;SDS011;7152;48.348;10.980;2022-11-15T15:11:29;8.73;;;7.40;;
14143;SDS011;7152;48.348;10.980;2022-11-15T15:13:55;10.10;;;8.67;;
14143;SDS011;7152;48.348;10.980;2022-11-15T15:16:23;10.70;;;8.53;;
14143;SDS011;7152;48.348;10.980;2022-11-15T15:18:49;10.03;;;7.63;;
14143;SDS011;7152;48.348;10.980;2022-11-15T15:21:27;10.10;;;8.20;;
14143;SDS011;7152;48.348;10.980;2022-11-15T15:23:53;11.80;;;8.87;;
14143;SDS011;7152;48.348;10.980;2022-11-15T15:26:20;12.20;;;9.03;;
14143;SDS011;7152;48.348;10.980;2022-11-15T15:28:46;8.63;;;7.60;;
14143;SDS011;7152;48.348;10.980;2022-11-15T15:31:13;8.53;;;6.93;;
14143;SDS011;7152;48.348;10.980;2022-11-15T15:33:39;8.53;;;7.30;;
14143;SDS011;7152;48.348;10.980;2022-11-15T15:36:08;8.47;;;6.63;;
14143;SDS011;7152;48.348;10.980;2022-11-15T15:38:37;7.73;;;7.00;;
14143;SDS011;7152;48.348;10.980;2022-11-15T15:41:08;9.40;;;7.47;;
14143;SDS011;7152;48.348;10.980;2022-11-15T15:43:35;8.50;;;7.17;;
14143;SDS011;7152;48.348;10.980;2022-11-15T15:46:00;7.90;;;7.20;;
14143;SDS011;7152;48.348;10.980;2022-11-15T15:48:26;9.80;;;7.90;;
14143;SDS011;7152;48.348;10.980;2022-11-15T15:50:51;11.57;;;7.67;;
14143;SDS011;7152;48.348;10.980;2022-11-15T15:53:17;10.23;;;7.90;;
14143;SDS011;7152;48.348;10.980;2022-11-15T15:55:43;9.70;;;8.30;;
14143;SDS011;7152;48.348;10.980;2022-11-15T15:58:08;11.87;;;9.17;;
14143;SDS011;7152;48.348;10.980;2022-11-15T16:00:35;10.50;;;8.77;;
14143;SDS011;7152;48.348;10.980;2022-11-15T16:03:01;10.40;;;8.83;;
14143;SDS011;7152;48.348;10.980;2022-11-15T16:05:27;15.67;;;11.93;;
14143;SDS011;7152;48.348;10.980;2022-11-15T16:07:53;17.83;;;13.37;;
14143;SDS011;7152;48.348;10.980;2022-11-15T16:10:20;18.90;;;12.93;;
14143;SDS011;7152;48.348;10.980;2022-11-15T16:12:48;22.63;;;13.77;;
14143;SDS011;7152;48.348;10.980;2022-11-15T16:15:13;23.97;;;13.90;;
14143;SDS011;7152;48.348;10.980;2022-11-15T16:17:42;24.43;;;13.80;;
14143;SDS011;7152;48.348;10.980;2022-11-15T16:20:34;25.33;;;15.13;;
14143;SDS011;7152;48.348;10.980;2022-11-15T16:23:00;20.93;;;12.30;;
14143;SDS011;7152;48.348;10.980;2022-11-15T16:25:28;19.50;;;11.90;;
14143;SDS011;7152;48.348;10.980;2022-11-15T16:27:55;20.80;;;12.67;;
14143;SDS011;7152;48.348;10.980;2022-11-15T16:30:21;14.23;;;9.80;;
14143;SDS011;7152;48.348;10.980;2022-11-15T16:32:48;13.70;;;9.73;;
14143;SDS011;7152;48.348;10.980;2022-11-15T16:35:14;12.63;;;9.27;;
14143;SDS011;7152;48.348;10.980;2022-11-15T16:37:42;11.03;;;9.53;;
14143;SDS011;7152;48.348;10.980;2022-11-15T16:40:32;15.23;;;11.10;;
14143;SDS011;7152;48.348;10.980;2022-11-15T16:42:58;14.73;;;11.03;;
14143;SDS011;7152;48.348;10.980;2022-11-15T16:45:26;16.33;;;11.97;;
14143;SDS011;7152;48.348;10.980;2022-11-15T16:47:53;16.10;;;12.20;;
14143;SDS011;7152;48.348;10.980;2022-11-15T16:50:21;20.67;;;12.90;;
14143;SDS011;7152;48.348;10.980;2022-11-15T16:52:57;19.60;;;14.17;;
14143;SDS011;7152;48.348;10.980;2022-11-15T16:55:27;20.43;;;15.37;;
14143;SDS011;7152;48.348;10.980;2022-11-15T16:57:54;19.20;;;14.83;;
14143;SDS011;7152;48.348;10.980;2022-11-15T17:00:22;15.03;;;12.37;;